Monterey Peninsula Airport
KMRY : now visible

Airfield :











YOU CAN JOIN US ON...

 
LOGIN :

Register | Disclaimer

   EN    FR    IT 

 









Legend :    VFR   Marginal VFR   IFR   Intensive IFR   Very Intensive IFR
Visi :
Ceiling :
>= 8 km
>= 3000ft
5 to 8 km
1000 to 3000 ft
1500m to 5 km
500 to 1000 ft
800 to 1500m
200 to 500 ft
< 800m
< 200 ft
Symbols :   Thunderstorms  Fog  Heavy snow  Heavy precipitations  Wind > 20 kt







- Airport Elevation : 257 ft
- IATA code : MRY


KMRY - Monterey Peninsula

CURRENT METAR :
  • 200954Z 13004KT 10SM CLR 14/08 A2994 RMK AO2 SLP149 T01390083

EXPIRED METARs :
  • 200854Z 11007KT 10SM CLR 14/08 A2994 RMK AO2 SLP150 T01390078 51006
  • 200754Z 11003KT 10SM CLR 14/08 A2994 RMK AO2 SLP150 T01390083 402110133

TAF KMRY
Valid from the 20 at 06:00 until the 21 at 06:00 UTC


200527Z 2006/2106 VRB03KT P6SM FEW010
FM201200 VRB02KT P6SM SCT007
FM201700 27006KT P6SM SKC
FM210300 22004KT P6SM SKC
No reported NOTAMs for that airfield.



MET'MAP, your aeronautical weather chart ! - Copyright ORBIFLY December 2007 - Disclaimer

ORBIFLY MET'MAP TEAM :

Programming & Development : Alexandra Zaïnal
Concept & Development : Baudouin d'Aumeries
Co-Development & Prog : Marc-Olivier Méhu
Technical & hardware support : Manuel Goepfert

Contact : metmap@orbifly.com




SOURCES & CREDITS :

   NOAA       Earth
Advisory